Virgem Dolorosa — CUEQ3 — position and weather

sailwx.info

Track history (hours):
 
Tides and Currents Weather Stations Pressure Air Temp Water Temp Dewpoint Dewpoint Depression Visibility Wind Speed Wind Dir Waves Ship Positions

Virgem Dolorosa

Last reported at 2017-Nov-07 15:32 UTC. Time now 2017-Dec-12 06:43 UTC.
Position N 41°12' W 008°44'.
Warning: this ship's position is 34 days out of date.

Length 24 m.

Type: Fishing. MMSI: 263411260.

Date/timePositionNaut miles runAvg speedWind from/ knotsBaromVisibWave heightAir tempDewpointWater temp
2017-Nov-07 15:32N 41°12' W 008°44'010.7
2017-Nov-07 15:30N 41°12' W 008°44'2 3.6
2017-Nov-07 15:00N 41°11' W 008°42'0 0.0
2017-Nov-07 14:30N 41°11' W 008°42'0 0.0
2017-Nov-07 14:00N 41°11' W 008°42'0 0.0
2017-Nov-07 13:30N 41°11' W 008°42'0 0.0
2017-Nov-07 13:00N 41°11' W 008°42'0 0.0
2017-Nov-07 12:30N 41°11' W 008°42'0 0.0
2017-Nov-07 12:00N 41°11' W 008°42'0 0.0
2017-Nov-07 11:30N 41°11' W 008°42'0 0.0
2017-Nov-07 11:00N 41°11' W 008°42'0 0.0
2017-Nov-07 10:30N 41°11' W 008°42'2 4.8
2017-Nov-07 10:00N 41°08' W 008°42'6 0.6
2017-Nov-06 23:09N 41°02' W 008°41'210.6
2017-Nov-06 23:00N 41°04' W 008°42'510.4
2017-Nov-06 22:30N 41°09' W 008°42'2 3.4
2017-Nov-06 22:00N 41°11' W 008°42'7 0.3
2017-Nov-06 00:24N 41°04' W 008°42'411.0
2017-Nov-06 00:00N 41°09' W 008°42'2 4.2
2017-Nov-05 23:30N 41°11' W 008°42'0 0.0
2017-Nov-05 23:00N 41°11' W 008°42'  
2017-Nov-03 12:37N 41°11' W 008°42'0 0.0
2017-Nov-03 12:30N 41°11' W 008°42'0 0.1
2017-Nov-03 12:00N 41°11' W 008°42'0 0.1
2017-Nov-03 11:30N 41°11' W 008°42'0 0.0
2017-Nov-03 11:00N 41°11' W 008°42'0 0.0
2017-Nov-03 10:30N 41°11' W 008°42'0 0.0
2017-Nov-03 10:00N 41°11' W 008°42'0 0.0
2017-Nov-03 09:31N 41°11' W 008°42'0 0.0
2017-Nov-03 09:00N 41°11' W 008°42'0 0.0
2017-Nov-03 08:30N 41°11' W 008°42'0 0.0
2017-Nov-03 08:00N 41°11' W 008°42'5 0.6
2017-Nov-02 22:51N 41°05' W 008°42'310.1
2017-Nov-02 22:30N 41°09' W 008°42'2 3.9
2017-Nov-02 22:00N 41°11' W 008°42'0 0.0
2017-Nov-02 11:24N 41°11' W 008°42'0 0.0
2017-Nov-02 11:01N 41°11' W 008°42'0 0.1
2017-Nov-02 10:31N 41°11' W 008°42'0 0.1
2017-Nov-02 10:00N 41°11' W 008°42'0 0.0
2017-Nov-02 09:30N 41°11' W 008°42'0 0.0
2017-Nov-02 09:00N 41°11' W 008°42'0 0.0
2017-Nov-02 08:30N 41°11' W 008°42'3 6.6
2017-Nov-02 08:00N 41°08' W 008°43'4 0.5
2017-Nov-01 23:56N 41°04' W 008°42'4 9.6
2017-Nov-01 23:30N 41°08' W 008°42'2 4.7
2017-Nov-01 23:00N 41°10' W 008°42'0 0.0
2017-Oct-31 09:58N 41°11' W 008°42'0 0.0
2017-Oct-31 09:30N 41°11' W 008°42'0 0.0
2017-Oct-31 09:00N 41°11' W 008°42'0 0.0
2017-Oct-31 08:30N 41°11' W 008°42'0 0.0
2017-Oct-31 08:00N 41°11' W 008°42'0 0.0
2017-Oct-31 07:31N 41°11' W 008°42'0 0.0
2017-Oct-31 07:00N 41°11' W 008°42'0 0.0
2017-Oct-31 06:30N 41°11' W 008°42'0 0.0
2017-Oct-31 06:00N 41°11' W 008°42'2 4.5
2017-Oct-31 05:30N 41°09' W 008°42'2 0.1
2017-Oct-29 23:25N 41°07' W 008°43'410.2
2017-Oct-29 23:00N 41°11' W 008°42'  
Track history (hours):
 
Tides and Currents Weather Stations Pressure Air Temp Water Temp Dewpoint Dewpoint Depression Visibility Wind Speed Wind Dir Waves Ship Positions

Virgem Dolorosa

Last reported at 2017-Nov-07 15:32 UTC. Time now 2017-Dec-12 06:43 UTC.
Position N 41°12' W 008°44'.
Warning: this ship's position is 34 days out of date.

Length 24 m.

Type: Fishing. MMSI: 263411260.

Date/timePositionNaut miles runAvg speedWind from/ knotsBaromVisibWave heightAir tempDewpointWater temp
2017-Nov-07 15:32N 41°12' W 008°44'010.7
2017-Nov-07 15:30N 41°12' W 008°44'2 3.6
2017-Nov-07 15:00N 41°11' W 008°42'0 0.0
2017-Nov-07 14:30N 41°11' W 008°42'0 0.0
2017-Nov-07 14:00N 41°11' W 008°42'0 0.0
2017-Nov-07 13:30N 41°11' W 008°42'0 0.0
2017-Nov-07 13:00N 41°11' W 008°42'0 0.0
2017-Nov-07 12:30N 41°11' W 008°42'0 0.0
2017-Nov-07 12:00N 41°11' W 008°42'0 0.0
2017-Nov-07 11:30N 41°11' W 008°42'0 0.0
2017-Nov-07 11:00N 41°11' W 008°42'0 0.0
2017-Nov-07 10:30N 41°11' W 008°42'2 4.8
2017-Nov-07 10:00N 41°08' W 008°42'6 0.6
2017-Nov-06 23:09N 41°02' W 008°41'210.6
2017-Nov-06 23:00N 41°04' W 008°42'510.4
2017-Nov-06 22:30N 41°09' W 008°42'2 3.4
2017-Nov-06 22:00N 41°11' W 008°42'7 0.3
2017-Nov-06 00:24N 41°04' W 008°42'411.0
2017-Nov-06 00:00N 41°09' W 008°42'2 4.2
2017-Nov-05 23:30N 41°11' W 008°42'0 0.0
2017-Nov-05 23:00N 41°11' W 008°42'  
2017-Nov-03 12:37N 41°11' W 008°42'0 0.0
2017-Nov-03 12:30N 41°11' W 008°42'0 0.1
2017-Nov-03 12:00N 41°11' W 008°42'0 0.1
2017-Nov-03 11:30N 41°11' W 008°42'0 0.0
2017-Nov-03 11:00N 41°11' W 008°42'0 0.0
2017-Nov-03 10:30N 41°11' W 008°42'0 0.0
2017-Nov-03 10:00N 41°11' W 008°42'0 0.0
2017-Nov-03 09:31N 41°11' W 008°42'0 0.0
2017-Nov-03 09:00N 41°11' W 008°42'0 0.0
2017-Nov-03 08:30N 41°11' W 008°42'0 0.0
2017-Nov-03 08:00N 41°11' W 008°42'5 0.6
2017-Nov-02 22:51N 41°05' W 008°42'310.1
2017-Nov-02 22:30N 41°09' W 008°42'2 3.9
2017-Nov-02 22:00N 41°11' W 008°42'0 0.0
2017-Nov-02 11:24N 41°11' W 008°42'0 0.0
2017-Nov-02 11:01N 41°11' W 008°42'0 0.1
2017-Nov-02 10:31N 41°11' W 008°42'0 0.1
2017-Nov-02 10:00N 41°11' W 008°42'0 0.0
2017-Nov-02 09:30N 41°11' W 008°42'0 0.0
2017-Nov-02 09:00N 41°11' W 008°42'0 0.0
2017-Nov-02 08:30N 41°11' W 008°42'3 6.6
2017-Nov-02 08:00N 41°08' W 008°43'4 0.5
2017-Nov-01 23:56N 41°04' W 008°42'4 9.6
2017-Nov-01 23:30N 41°08' W 008°42'2 4.7
2017-Nov-01 23:00N 41°10' W 008°42'0 0.0
2017-Oct-31 09:58N 41°11' W 008°42'0 0.0
2017-Oct-31 09:30N 41°11' W 008°42'0 0.0
2017-Oct-31 09:00N 41°11' W 008°42'0 0.0
2017-Oct-31 08:30N 41°11' W 008°42'0 0.0
2017-Oct-31 08:00N 41°11' W 008°42'0 0.0
2017-Oct-31 07:31N 41°11' W 008°42'0 0.0
2017-Oct-31 07:00N 41°11' W 008°42'0 0.0
2017-Oct-31 06:30N 41°11' W 008°42'0 0.0
2017-Oct-31 06:00N 41°11' W 008°42'2 4.5
2017-Oct-31 05:30N 41°09' W 008°42'2 0.1
2017-Oct-29 23:25N 41°07' W 008°43'410.2
2017-Oct-29 23:00N 41°11' W 008°42'  

Dump ship's entire track history